Ahwahnee, California
Current Conditions -  °F | °C
As of 5:53 PM on Friday 19 Dec 2014 (Local Time) from KMAE Reporting Station
Overcast Overcast  
Wind Chill: 55°   Ceiling: 9000
Heat Index: 55°   Visibility: 10mi
Dew Point: 48°   Wind: 0mph
Humidity: 77%   Direction: NA
Pressure: 30.18"   Gusts: NA
Location:  37.37°N, 119.73°W
Report Text: KMAE 200153Z AUTO 00000KT 10SM BKN090 OVC100 13/09 A3018 RMK AO2 SLP219 T01280089
Loading
Personal Weather Stations






























Interactive Weather Map New forecast layout! Learn more

10-Day Weather Forecast

Advertisements
Track Severe Weather on mobile